Time;durP1;ratioP1;P1;durP2;ratioP2;P2;SDS_P1;SDS_P2;PMS_P1;PMS_P2;Temp;Humidity;BMP_temperature;BMP_pressure;BME280_temperature;BME280_humidity;BME280_pressure;Samples;Min_cycle;Max_cycle;Signal;HPM_P1;HPM_P2
2022/08/29 00:01:35;;;;;;;3.87;3.67;;;27.40;62.00;;;;;;5051440;28;21187;-74
2022/08/29 00:04:04;;;;;;;3.43;3.23;;;27.30;62.00;;;;;;5048256;28;20441;-74
2022/08/29 00:06:33;;;;;;;4.50;4.20;;;27.40;62.00;;;;;;5051495;28;20439;-74
2022/08/29 00:09:01;;;;;;;4.20;4.00;;;27.40;62.00;;;;;;5051641;28;20484;-74
2022/08/29 00:11:32;;;;;;;4.30;4.00;;;27.30;62.00;;;;;;5050611;28;20480;-74
2022/08/29 00:14:00;;;;;;;4.10;3.90;;;27.30;62.10;;;;;;5051682;28;20890;-74
2022/08/29 00:16:28;;;;;;;3.83;3.63;;;27.30;62.10;;;;;;5050528;28;21099;-74
2022/08/29 00:18:57;;;;;;;3.77;3.47;;;27.30;62.10;;;;;;5050910;28;20454;-73
2022/08/29 00:21:25;;;;;;;4.07;3.77;;;27.30;62.10;;;;;;5051450;28;20550;-73
2022/08/29 00:23:53;;;;;;;3.60;3.40;;;27.30;62.10;;;;;;5051533;28;20503;-74
2022/08/29 00:26:22;;;;;;;5.00;4.70;;;27.30;62.10;;;;;;5050510;28;20547;-74
2022/08/29 00:28:55;;;;;;;4.33;4.03;;;27.30;62.10;;;;;;5051346;28;20454;-74
2022/08/29 00:31:23;;;;;;;4.30;3.93;;;27.30;62.10;;;;;;5047315;28;20481;-73
2022/08/29 00:33:51;;;;;;;3.70;3.50;;;27.30;62.10;;;;;;5052119;28;21004;-73
2022/08/29 00:36:19;;;;;;;3.60;3.40;;;27.30;62.10;;;;;;5054964;28;20473;-74
2022/08/29 00:38:49;;;;;;;4.30;4.03;;;27.30;62.20;;;;;;5054679;28;20460;-75
2022/08/29 00:41:18;;;;;;;4.50;4.20;;;27.30;62.10;;;;;;5054384;28;20487;-74
2022/08/29 00:43:46;;;;;;;3.70;3.50;;;27.30;62.20;;;;;;5054714;28;20494;-74
2022/08/29 00:46:38;;;;;;;4.37;4.10;;;27.30;62.10;;;;;;5045178;28;20996;-74
2022/08/29 00:49:11;;;;;;;4.03;3.80;;;27.30;62.20;;;;;;5044341;28;20519;-74
2022/08/29 00:51:41;;;;;;;4.60;4.20;;;27.30;62.20;;;;;;5054552;28;20430;-74
2022/08/29 00:54:11;;;;;;;4.50;4.20;;;27.30;62.20;;;;;;5054213;28;20506;-75
2022/08/29 00:56:41;;;;;;;4.27;4.00;;;27.30;62.20;;;;;;5053932;28;20472;-74
2022/08/29 00:59:13;;;;;;;4.47;4.17;;;27.30;62.20;;;;;;5054581;28;20482;-75
2022/08/29 01:01:43;;;;;;;5.17;4.77;;;27.30;62.20;;;;;;5054269;28;20438;-73
2022/08/29 01:04:13;;;;;;;4.33;4.03;;;27.20;62.20;;;;;;5054299;28;20442;-75
2022/08/29 01:06:52;;;;;;;5.20;4.70;;;27.30;62.20;;;;;;5054549;28;20748;-74
2022/08/29 01:09:21;;;;;;;4.00;3.70;;;27.20;62.20;;;;;;5054212;28;20479;-74
2022/08/29 01:14:36;;;;;;;4.10;3.80;;;27.20;62.30;;;;;;5054175;28;20502;-74
2022/08/29 01:17:10;;;;;;;4.20;3.90;;;27.20;62.30;;;;;;5053377;28;20501;-74
2022/08/29 01:19:46;;;;;;;3.90;3.70;;;27.20;62.30;;;;;;5053559;28;20481;-74
2022/08/29 01:22:23;;;;;;;3.40;3.10;;;27.20;62.30;;;;;;5054298;28;20458;-74
2022/08/29 01:24:54;;;;;;;4.73;4.43;;;27.20;62.30;;;;;;5052910;28;20508;-74
2022/08/29 01:27:27;;;;;;;4.03;3.73;;;27.20;62.30;;;;;;5053990;28;20513;-74
2022/08/29 01:29:56;;;;;;;3.63;3.43;;;27.20;62.30;;;;;;5052309;28;20460;-76
2022/08/29 01:32:25;;;;;;;4.13;3.93;;;27.20;62.30;;;;;;5053493;28;20439;-76
2022/08/29 01:34:54;;;;;;;4.03;3.73;;;27.20;62.30;;;;;;5037691;28;20807;-76
2022/08/29 01:37:25;;;;;;;3.70;3.50;;;27.20;62.30;;;;;;5067281;28;20560;-76
2022/08/29 01:39:54;;;;;;;4.30;4.03;;;27.20;62.30;;;;;;5053112;28;20807;-77
2022/08/29 01:42:23;;;;;;;3.70;3.50;;;27.20;62.40;;;;;;5053124;28;20514;-76
2022/08/29 01:44:54;;;;;;;4.00;3.80;;;27.20;62.40;;;;;;5053888;28;20840;-77
2022/08/29 01:47:26;;;;;;;4.27;3.97;;;27.20;62.40;;;;;;5053279;28;20454;-76
2022/08/29 01:49:54;;;;;;;4.10;3.80;;;27.20;62.40;;;;;;5053132;28;20464;-76
2022/08/29 01:52:23;;;;;;;4.00;3.80;;;27.20;62.40;;;;;;5053537;28;20522;-76
2022/08/29 01:54:51;;;;;;;3.80;3.60;;;27.20;62.40;;;;;;5084126;28;20578;-77
2022/08/29 01:57:20;;;;;;;3.67;3.47;;;27.20;62.40;;;;;;5053364;28;20489;-76
2022/08/29 01:59:49;;;;;;;4.13;3.93;;;27.20;62.40;;;;;;5053415;28;20461;-76
2022/08/29 02:02:20;;;;;;;4.30;4.00;;;27.20;62.40;;;;;;5052894;28;20480;-77
2022/08/29 02:04:48;;;;;;;4.20;3.90;;;27.10;62.40;;;;;;5047948;28;20463;-77
2022/08/29 02:07:20;;;;;;;4.43;4.17;;;27.10;62.40;;;;;;5040086;28;20446;-74
2022/08/29 02:09:48;;;;;;;3.90;3.60;;;27.10;62.50;;;;;;5053060;28;20500;-74
2022/08/29 02:12:17;;;;;;;3.70;3.50;;;27.10;62.60;;;;;;5052825;28;20466;-74
2022/08/29 02:14:47;;;;;;;4.40;4.10;;;27.10;62.60;;;;;;5053140;28;20499;-74
2022/08/29 02:17:15;;;;;;;4.50;4.20;;;27.10;62.40;;;;;;5052264;28;20596;-73
2022/08/29 02:19:43;;;;;;;4.17;3.87;;;27.10;62.60;;;;;;5052270;28;20482;-76
2022/08/29 02:22:13;;;;;;;4.37;4.07;;;27.10;62.50;;;;;;5052703;28;20492;-74
2022/08/29 02:24:41;;;;;;;3.90;3.60;;;27.10;62.50;;;;;;5052011;28;20454;-75
2022/08/29 02:27:11;;;;;;;4.33;4.03;;;27.10;62.60;;;;;;5052283;28;20560;-74
2022/08/29 02:29:39;;;;;;;3.50;3.30;;;27.10;62.60;;;;;;5052207;28;20462;-74
2022/08/29 02:32:14;;;;;;;3.63;3.43;;;27.10;62.60;;;;;;5052159;28;20524;-74
2022/08/29 02:34:44;;;;;;;4.27;3.97;;;27.10;62.60;;;;;;5052133;28;20468;-73
2022/08/29 02:37:16;;;;;;;4.00;3.80;;;27.10;62.60;;;;;;5052039;28;20458;-74
2022/08/29 02:39:44;;;;;;;4.03;3.83;;;27.10;62.60;;;;;;5052367;28;20504;-74
2022/08/29 02:42:13;;;;;;;3.67;3.47;;;27.10;62.60;;;;;;5052634;28;20434;-74
2022/08/29 02:44:41;;;;;;;4.00;3.70;;;27.10;62.60;;;;;;5052804;28;20435;-74
2022/08/29 02:47:10;;;;;;;4.13;3.90;;;27.10;62.60;;;;;;5035560;28;20506;-74
2022/08/29 02:49:38;;;;;;;3.83;3.63;;;27.00;62.60;;;;;;5041247;28;20918;-74
2022/08/29 02:52:07;;;;;;;3.87;3.67;;;27.00;62.60;;;;;;5051966;28;20447;-74
2022/08/29 02:54:36;;;;;;;3.80;3.60;;;27.00;62.70;;;;;;5050335;28;20828;-74
2022/08/29 02:57:04;;;;;;;3.90;3.70;;;27.00;62.70;;;;;;5051810;28;20524;-74
2022/08/29 02:59:32;;;;;;;3.90;3.70;;;27.00;62.70;;;;;;5052163;28;20500;-74
2022/08/29 03:02:01;;;;;;;3.90;3.70;;;27.00;62.70;;;;;;5051509;28;20454;-74
2022/08/29 03:04:31;;;;;;;3.90;3.70;;;27.00;62.70;;;;;;5051874;28;20434;-74
2022/08/29 03:06:59;;;;;;;3.83;3.63;;;27.00;62.70;;;;;;5051435;28;20864;-73
2022/08/29 03:09:27;;;;;;;4.07;3.87;;;27.00;62.70;;;;;;5052113;28;20438;-73
2022/08/29 03:11:55;;;;;;;3.80;3.60;;;27.00;62.70;;;;;;5052410;28;20489;-74
2022/08/29 03:14:23;;;;;;;5.10;3.80;;;27.00;62.80;;;;;;5051746;28;21059;-75
2022/08/29 03:16:52;;;;;;;3.60;3.40;;;27.00;62.80;;;;;;5051688;28;20510;-74
2022/08/29 03:19:21;;;;;;;3.00;2.87;;;27.00;62.70;;;;;;5051136;28;20522;-74
2022/08/29 03:21:51;;;;;;;3.67;3.47;;;27.00;62.80;;;;;;5051388;28;20533;-74
2022/08/29 03:24:19;;;;;;;3.33;3.13;;;27.00;62.80;;;;;;5051441;28;20842;-74
2022/08/29 03:26:54;;;;;;;3.50;3.30;;;27.00;62.80;;;;;;5051833;28;20840;-73
2022/08/29 03:29:24;;;;;;;3.80;3.60;;;27.00;62.80;;;;;;5051683;28;20454;-73
2022/08/29 03:31:57;;;;;;;3.57;3.37;;;27.00;62.80;;;;;;5050826;28;20548;-74
2022/08/29 03:34:26;;;;;;;3.73;3.53;;;27.00;62.80;;;;;;5051327;28;20535;-74
2022/08/29 03:36:55;;;;;;;4.10;3.90;;;27.00;62.80;;;;;;5038725;28;20541;-73
2022/08/29 03:39:24;;;;;;;3.90;3.70;;;27.00;62.80;;;;;;5051720;28;20438;-74
2022/08/29 03:41:52;;;;;;;3.87;3.67;;;27.00;62.80;;;;;;5051783;28;20497;-75
2022/08/29 03:44:20;;;;;;;3.50;3.30;;;27.00;62.80;;;;;;5051677;28;20434;-74
2022/08/29 03:46:49;;;;;;;3.70;3.40;;;26.90;62.80;;;;;;5051284;28;20431;-74
2022/08/29 03:49:17;;;;;;;3.40;3.20;;;26.90;62.80;;;;;;5051127;28;20454;-74
2022/08/29 03:51:45;;;;;;;4.03;3.83;;;26.90;62.80;;;;;;5051542;28;20468;-74
2022/08/29 03:54:15;;;;;;;3.57;3.37;;;26.90;62.80;;;;;;5051316;28;20514;-75
2022/08/29 03:56:46;;;;;;;3.63;3.43;;;26.90;62.80;;;;;;5051143;28;20502;-74
2022/08/29 03:59:15;;;;;;;3.57;3.37;;;26.90;62.80;;;;;;5051474;28;20915;-74
2022/08/29 04:01:46;;;;;;;3.87;3.67;;;26.90;62.80;;;;;;5051417;28;20889;-76
2022/08/29 04:05:05;;;;;;;3.87;3.57;;;26.90;62.80;;;;;;5050832;28;20433;-74
2022/08/29 04:07:05;;;;;;;3.40;3.20;;;26.90;62.80;;;;;;5045756;28;20519;-74
2022/08/29 04:09:34;;;;;;;3.90;3.60;;;26.90;62.80;;;;;;5040486;28;20511;-74
2022/08/29 04:12:03;;;;;;;3.33;3.13;;;26.90;62.80;;;;;;5052598;28;20482;-74
2022/08/29 04:14:32;;;;;;;3.90;3.70;;;26.90;62.80;;;;;;5054896;28;20501;-74
2022/08/29 04:17:03;;;;;;;3.60;3.40;;;26.90;62.80;;;;;;5055158;28;20545;-74
2022/08/29 04:19:32;;;;;;;3.50;3.30;;;26.90;62.80;;;;;;5054467;28;20503;-74
2022/08/29 04:22:00;;;;;;;3.50;3.30;;;26.90;62.90;;;;;;5054875;28;20434;-74
2022/08/29 04:24:30;;;;;;;3.13;2.97;;;26.90;62.90;;;;;;5055333;28;20496;-74
2022/08/29 04:27:00;;;;;;;3.50;3.30;;;26.90;62.90;;;;;;5054607;28;20518;-74
2022/08/29 04:29:28;;;;;;;3.03;2.90;;;26.90;62.90;;;;;;5054719;28;20430;-75
2022/08/29 04:31:56;;;;;;;3.47;3.27;;;26.90;62.90;;;;;;5054306;28;20489;-74
2022/08/29 04:34:24;;;;;;;3.63;3.40;;;26.90;62.90;;;;;;5054423;28;20879;-74
2022/08/29 04:36:52;;;;;;;3.80;3.60;;;26.90;62.90;;;;;;5054479;28;20921;-74
2022/08/29 04:39:22;;;;;;;3.57;3.37;;;26.80;63.00;;;;;;5044996;28;20786;-74
2022/08/29 04:41:50;;;;;;;3.23;3.03;;;26.90;63.00;;;;;;5054410;28;20462;-74
2022/08/29 04:44:20;;;;;;;3.50;3.30;;;26.80;63.00;;;;;;5054806;28;20994;-74
2022/08/29 04:46:48;;;;;;;3.20;3.00;;;26.80;63.00;;;;;;5054471;28;20488;-75
2022/08/29 04:49:16;;;;;;;3.50;3.30;;;26.80;63.00;;;;;;5054229;28;20453;-74
2022/08/29 04:51:44;;;;;;;3.17;2.97;;;26.80;63.00;;;;;;5054514;28;20446;-74
2022/08/29 04:54:12;;;;;;;3.30;3.10;;;26.80;63.00;;;;;;5053964;28;20458;-74
2022/08/29 04:56:41;;;;;;;3.70;3.50;;;26.80;63.00;;;;;;5047630;28;20973;-74
2022/08/29 04:59:15;;;;;;;3.50;3.30;;;26.80;63.00;;;;;;5037926;28;20437;-74
2022/08/29 05:01:46;;;;;;;3.60;3.40;;;26.80;63.00;;;;;;5054013;28;20532;-74
2022/08/29 05:04:14;;;;;;;3.67;3.47;;;26.80;63.00;;;;;;5053909;28;20430;-74
2022/08/29 05:06:43;;;;;;;3.20;3.00;;;26.80;63.00;;;;;;5054386;28;20894;-74
2022/08/29 05:09:11;;;;;;;3.17;2.97;;;26.80;63.00;;;;;;5053974;28;20518;-75
2022/08/29 05:11:40;;;;;;;3.60;3.40;;;26.80;63.00;;;;;;5054040;28;20460;-77
2022/08/29 05:14:08;;;;;;;3.37;3.17;;;26.80;63.00;;;;;;5054474;28;20453;-77
2022/08/29 05:16:37;;;;;;;3.33;3.13;;;26.80;63.00;;;;;;5053833;28;20908;-77
2022/08/29 05:19:08;;;;;;;3.23;3.03;;;26.80;63.00;;;;;;5053847;28;20544;-76
2022/08/29 05:21:38;;;;;;;3.47;3.23;;;26.80;63.00;;;;;;5054347;28;20465;-76
2022/08/29 05:24:09;;;;;;;3.27;3.07;;;26.80;63.10;;;;;;5062801;28;20464;-77
2022/08/29 05:26:40;;;;;;;4.23;4.03;;;26.80;63.00;;;;;;5074278;28;20473;-78
2022/08/29 05:29:11;;;;;;;3.60;3.40;;;26.80;63.00;;;;;;5055830;28;20452;-77
2022/08/29 05:31:40;;;;;;;3.30;3.10;;;26.80;63.00;;;;;;5053973;28;20458;-76
2022/08/29 05:34:13;;;;;;;3.33;3.13;;;26.80;63.00;;;;;;5053110;28;20944;-77
2022/08/29 05:37:03;;;;;;;3.30;3.10;;;26.80;63.00;;;;;;5034049;28;20799;-77
2022/08/29 05:39:32;;;;;;;3.20;3.00;;;26.80;63.00;;;;;;5034020;28;20522;-77
2022/08/29 05:42:00;;;;;;;3.47;3.27;;;26.80;63.00;;;;;;5047759;28;20465;-76
2022/08/29 05:44:31;;;;;;;2.97;2.83;;;26.80;63.00;;;;;;5053967;28;20454;-77
2022/08/29 05:47:03;;;;;;;3.43;3.23;;;26.80;63.00;;;;;;5053452;28;20739;-77
2022/08/29 05:49:36;;;;;;;3.30;3.10;;;26.80;63.00;;;;;;5052922;28;20441;-76
2022/08/29 05:52:05;;;;;;;3.17;2.90;;;26.80;63.00;;;;;;5053514;28;20450;-76
2022/08/29 05:54:35;;;;;;;3.57;3.33;;;26.80;63.00;;;;;;5053622;28;21090;-76
2022/08/29 05:57:05;;;;;;;3.23;3.03;;;26.80;63.00;;;;;;5053181;28;20477;-76
2022/08/29 05:59:34;;;;;;;2.93;2.73;;;26.80;63.00;;;;;;5054142;28;20462;-77
2022/08/29 06:02:02;;;;;;;3.20;3.00;;;26.80;63.00;;;;;;5052039;28;20490;-77
2022/08/29 06:04:30;;;;;;;3.00;2.90;;;26.80;63.00;;;;;;5053082;28;20448;-77
2022/08/29 06:07:00;;;;;;;3.53;3.33;;;26.80;63.00;;;;;;5053097;28;20847;-76
2022/08/29 06:09:28;;;;;;;3.70;3.50;;;26.80;63.00;;;;;;5053273;28;20985;-77
2022/08/29 06:11:57;;;;;;;3.40;3.20;;;26.80;63.00;;;;;;5052806;28;20937;-76
2022/08/29 06:14:26;;;;;;;3.47;3.27;;;26.80;63.00;;;;;;5053366;28;20841;-76
2022/08/29 06:16:54;;;;;;;3.50;3.30;;;26.80;63.00;;;;;;5051246;28;20550;-77
2022/08/29 06:19:23;;;;;;;3.20;3.00;;;26.80;63.00;;;;;;5050510;28;20443;-77
2022/08/29 06:21:54;;;;;;;3.50;3.30;;;26.80;63.00;;;;;;5052723;28;20977;-77
2022/08/29 06:24:23;;;;;;;3.10;2.90;;;26.80;62.90;;;;;;5046295;28;20458;-76
2022/08/29 06:26:51;;;;;;;4.00;3.70;;;26.80;62.90;;;;;;5051100;28;20514;-76
2022/08/29 06:29:20;;;;;;;3.03;2.93;;;26.80;62.90;;;;;;5052920;28;20835;-76
2022/08/29 06:31:48;;;;;;;3.33;3.13;;;26.80;62.90;;;;;;5051765;28;20484;-78
2022/08/29 06:34:16;;;;;;;3.10;2.93;;;26.80;62.90;;;;;;5052469;28;20439;-76
2022/08/29 06:36:44;;;;;;;3.70;3.50;;;26.80;62.90;;;;;;5052649;28;20495;-76
2022/08/29 06:39:13;;;;;;;2.90;2.77;;;26.80;62.90;;;;;;5052965;28;20967;-76
2022/08/29 06:41:43;;;;;;;3.40;3.20;;;26.80;62.80;;;;;;5052183;28;20554;-77
2022/08/29 06:44:14;;;;;;;2.60;2.50;;;26.80;62.80;;;;;;5051389;28;20462;-78
2022/08/29 06:46:45;;;;;;;3.67;3.47;;;26.80;62.80;;;;;;5052116;28;20520;-78
2022/08/29 06:49:15;;;;;;;3.20;3.00;;;26.90;62.80;;;;;;5050913;28;20480;-77
2022/08/29 06:51:51;;;;;;;3.20;3.00;;;26.90;62.80;;;;;;5052177;28;20495;-76
2022/08/29 06:54:27;;;;;;;3.47;3.27;;;26.90;62.80;;;;;;5050936;28;20511;-76
2022/08/29 06:56:58;;;;;;;3.17;2.97;;;26.90;62.80;;;;;;5044692;28;20476;-76
2022/08/29 06:59:27;;;;;;;3.20;3.00;;;26.90;62.70;;;;;;5032406;28;20464;-76
2022/08/29 07:01:55;;;;;;;3.20;3.00;;;26.90;62.70;;;;;;5039753;28;20858;-76
2022/08/29 07:04:23;;;;;;;3.73;3.53;;;26.90;62.70;;;;;;5051941;28;20441;-77
2022/08/29 07:06:53;;;;;;;3.13;2.97;;;26.90;62.70;;;;;;5052084;28;20445;-77
2022/08/29 07:09:22;;;;;;;3.17;2.97;;;26.90;62.70;;;;;;5051946;28;20493;-76
2022/08/29 07:11:52;;;;;;;2.93;2.83;;;26.90;62.70;;;;;;5051689;28;20458;-76
2022/08/29 07:14:22;;;;;;;3.20;3.00;;;26.90;62.70;;;;;;5052149;28;20416;-77
2022/08/29 07:16:50;;;;;;;3.07;2.97;;;26.90;62.60;;;;;;5051334;28;21044;-76
2022/08/29 07:19:18;;;;;;;3.60;3.40;;;26.90;62.60;;;;;;5052083;28;20438;-77
2022/08/29 07:21:47;;;;;;;2.80;2.70;;;26.90;62.60;;;;;;5052054;28;20846;-76
2022/08/29 07:24:15;;;;;;;3.73;3.53;;;26.90;62.60;;;;;;5050641;28;20451;-81
2022/08/29 07:26:45;;;;;;;3.07;2.87;;;26.90;62.60;;;;;;5049995;28;20498;-76
2022/08/29 07:29:17;;;;;;;3.30;3.10;;;26.90;62.60;;;;;;5051644;28;20490;-77
2022/08/29 07:31:47;;;;;;;2.83;2.63;;;26.90;62.60;;;;;;5051283;28;20759;-76
2022/08/29 07:34:15;;;;;;;3.50;3.30;;;26.90;62.50;;;;;;5051748;28;20462;-77
2022/08/29 07:36:48;;;;;;;3.00;2.83;;;27.00;62.50;;;;;;5052010;28;20469;-76
2022/08/29 07:39:18;;;;;;;3.20;3.00;;;26.90;62.50;;;;;;5051814;28;20915;-76
2022/08/29 07:41:46;;;;;;;3.10;2.90;;;27.00;62.50;;;;;;5044764;28;20849;-76
2022/08/29 07:44:16;;;;;;;3.10;2.90;;;26.90;62.50;;;;;;5047608;28;20504;-77
2022/08/29 07:46:46;;;;;;;3.03;2.80;;;27.00;62.50;;;;;;5055431;28;20523;-77
2022/08/29 07:49:14;;;;;;;3.90;3.70;;;27.00;62.50;;;;;;5055821;28;20479;-77
2022/08/29 07:51:42;;;;;;;4.00;3.73;;;27.00;62.40;;;;;;5055675;28;20460;-77
2022/08/29 07:54:15;;;;;;;3.10;2.90;;;27.00;62.50;;;;;;5055114;28;20458;-77
2022/08/29 07:56:43;;;;;;;3.40;3.20;;;27.00;62.40;;;;;;5055551;28;20798;-77
2022/08/29 07:59:12;;;;;;;2.90;2.70;;;27.00;62.40;;;;;;5055772;28;20919;-76
2022/08/29 08:01:43;;;;;;;4.17;3.97;;;27.00;62.40;;;;;;5055263;28;20801;-77
2022/08/29 08:04:13;;;;;;;3.23;3.03;;;27.00;62.40;;;;;;5055858;28;20449;-76
2022/08/29 08:06:42;;;;;;;3.00;2.90;;;27.00;62.40;;;;;;5055794;28;20774;-77
2022/08/29 08:09:12;;;;;;;3.60;3.40;;;27.00;62.40;;;;;;5055809;28;20449;-77
2022/08/29 08:11:42;;;;;;;3.60;3.40;;;27.00;62.40;;;;;;5051897;28;20456;-77
2022/08/29 08:14:11;;;;;;;3.47;3.27;;;27.00;62.40;;;;;;5055237;28;20952;-76
2022/08/29 08:16:40;;;;;;;3.13;2.93;;;27.00;62.30;;;;;;5054112;28;20480;-77
2022/08/29 08:19:14;;;;;;;3.37;3.17;;;27.00;62.30;;;;;;5054988;28;20438;-76
2022/08/29 08:21:43;;;;;;;3.33;3.13;;;27.00;62.30;;;;;;5055194;28;20454;-77
2022/08/29 08:24:17;;;;;;;3.73;3.43;;;27.00;62.30;;;;;;5049341;28;20465;-76
2022/08/29 08:26:47;;;;;;;3.17;2.97;;;27.00;62.30;;;;;;5035131;28;20486;-76
2022/08/29 08:29:15;;;;;;;3.43;3.23;;;27.00;62.30;;;;;;5035270;28;20505;-76
2022/08/29 08:31:44;;;;;;;3.27;3.07;;;27.00;62.30;;;;;;5046346;28;20446;-77
2022/08/29 08:34:14;;;;;;;3.27;3.07;;;27.00;62.30;;;;;;5054695;28;20457;-77
2022/08/29 08:36:43;;;;;;;3.10;2.90;;;27.00;62.30;;;;;;5054837;28;20475;-77
2022/08/29 08:39:12;;;;;;;3.77;3.47;;;27.00;62.30;;;;;;5054845;28;20473;-77
2022/08/29 08:41:52;;;;;;;3.40;3.20;;;27.00;62.30;;;;;;5054659;28;20443;-76
2022/08/29 08:44:52;;;;;;;3.60;3.40;;;27.00;62.30;;;;;;5051074;28;20951;-77
2022/08/29 08:47:25;;;;;;;3.47;3.27;;;27.00;62.20;;;;;;5052401;28;20462;-76
2022/08/29 08:49:59;;;;;;;3.13;3.00;;;27.00;62.20;;;;;;5053750;28;20919;-76
2022/08/29 08:52:37;;;;;;;3.20;3.00;;;27.00;62.20;;;;;;5053892;28;20445;-77
2022/08/29 08:55:11;;;;;;;3.10;2.90;;;27.00;62.20;;;;;;5054091;28;20434;-76
2022/08/29 08:57:44;;;;;;;3.50;3.30;;;27.00;62.20;;;;;;5054650;28;20872;-77
2022/08/29 09:00:12;;;;;;;3.30;3.10;;;27.10;62.20;;;;;;5054746;28;20458;-76
2022/08/29 09:02:50;;;;;;;3.60;3.40;;;27.10;62.20;;;;;;5054257;28;20490;-76
2022/08/29 09:05:34;;;;;;;3.90;3.70;;;27.10;62.10;;;;;;5054280;28;20442;-76
2022/08/29 09:08:13;;;;;;;3.43;3.17;;;27.10;62.20;;;;;;5054522;28;20441;-76
2022/08/29 09:10:48;;;;;;;2.97;2.77;;;27.10;62.10;;;;;;5054071;28;20935;-76
2022/08/29 09:13:27;;;;;;;3.67;3.43;;;27.10;62.10;;;;;;5054500;28;20480;-76
2022/08/29 09:15:59;;;;;;;3.43;3.23;;;27.10;62.10;;;;;;5039966;28;20999;-77
2022/08/29 09:18:33;;;;;;;3.50;3.30;;;27.10;62.10;;;;;;5052354;28;20897;-76
2022/08/29 09:21:13;;;;;;;3.67;3.43;;;27.10;62.10;;;;;;5054124;28;20839;-78
2022/08/29 09:24:05;;;;;;;3.37;3.17;;;27.10;62.10;;;;;;5053434;28;20787;-77
2022/08/29 09:26:33;;;;;;;3.43;3.23;;;27.10;62.00;;;;;;5053666;28;20519;-77
2022/08/29 09:29:01;;;;;;;3.50;3.30;;;27.10;62.00;;;;;;5054204;28;20597;-76
2022/08/29 09:31:33;;;;;;;3.33;3.13;;;27.10;62.00;;;;;;5053864;28;20464;-76
2022/08/29 09:34:04;;;;;;;3.70;3.50;;;27.10;62.00;;;;;;5053320;28;20533;-76
2022/08/29 09:36:52;;;;;;;3.30;3.10;;;27.10;62.00;;;;;;5053931;28;20950;-76
2022/08/29 09:39:22;;;;;;;4.40;4.10;;;27.10;62.00;;;;;;5040334;28;20453;-77
2022/08/29 09:41:52;;;;;;;3.43;3.23;;;27.10;61.90;;;;;;5053591;28;20511;-76
2022/08/29 09:44:24;;;;;;;3.27;3.07;;;27.10;61.90;;;;;;5053826;28;20434;-76
2022/08/29 09:47:07;;;;;;;3.63;3.43;;;27.10;61.90;;;;;;5049085;28;20490;-76
2022/08/29 09:49:38;;;;;;;3.73;3.50;;;27.10;61.90;;;;;;5045847;28;20932;-76
2022/08/29 09:52:14;;;;;;;3.30;3.10;;;27.20;61.90;;;;;;5053972;28;20913;-76
2022/08/29 09:54:42;;;;;;;3.80;3.60;;;27.20;61.90;;;;;;5053155;28;20450;-76
2022/08/29 09:57:20;;;;;;;3.10;2.90;;;27.20;61.80;;;;;;5053538;28;20577;-76
2022/08/29 09:59:50;;;;;;;3.30;3.10;;;27.20;61.80;;;;;;5053137;28;20461;-76
2022/08/29 10:02:25;;;;;;;3.50;3.30;;;27.20;61.80;;;;;;5051401;28;20444;-76
2022/08/29 10:04:56;;;;;;;3.10;3.00;;;27.20;61.80;;;;;;5033341;28;20524;-78
2022/08/29 10:07:29;;;;;;;3.53;3.33;;;27.20;61.70;;;;;;5032693;28;20844;-76
2022/08/29 10:10:01;;;;;;;3.40;3.20;;;27.20;61.80;;;;;;5052945;28;20424;-76
2022/08/29 10:12:36;;;;;;;3.50;3.30;;;27.20;61.80;;;;;;5049116;28;20512;-76
2022/08/29 10:15:09;;;;;;;3.03;2.83;;;27.20;61.80;;;;;;5053244;28;20443;-77
2022/08/29 10:20:54;;;;;;;3.23;3.03;;;27.20;61.80;;;;;;5053198;28;20465;-76
2022/08/29 10:23:36;;;;;;;3.07;2.93;;;27.20;61.70;;;;;;5051104;28;20508;-76
2022/08/29 10:26:19;;;;;;;3.70;3.50;;;27.20;61.70;;;;;;5052737;28;20509;-77
2022/08/29 10:28:53;;;;;;;3.10;2.90;;;27.30;61.70;;;;;;5052933;28;20542;-76
2022/08/29 10:31:33;;;;;;;3.57;3.37;;;27.30;61.60;;;;;;5052614;28;20435;-77
2022/08/29 10:34:13;;;;;;;3.40;3.20;;;27.30;61.60;;;;;;5052870;28;20489;-76
2022/08/29 10:36:46;;;;;;;3.30;3.10;;;27.30;61.50;;;;;;5052904;28;20528;-76
2022/08/29 10:39:19;;;;;;;3.13;2.93;;;27.30;61.50;;;;;;5052801;28;20532;-76
2022/08/29 10:41:59;;;;;;;3.10;2.90;;;27.30;61.50;;;;;;5052328;28;20455;-76
2022/08/29 10:44:36;;;;;;;3.53;3.33;;;27.30;61.40;;;;;;5052762;28;20918;-76
2022/08/29 10:47:18;;;;;;;2.90;2.70;;;27.30;61.40;;;;;;5052666;28;20465;-78
2022/08/29 10:50:08;;;;;;;3.23;3.03;;;27.40;61.40;;;;;;5052408;28;20458;-76
2022/08/29 10:52:58;;;;;;;3.23;3.13;;;27.40;61.40;;;;;;5039867;28;20451;-76
2022/08/29 10:55:41;;;;;;;3.80;3.60;;;27.40;61.40;;;;;;5052337;28;20918;-78
2022/08/29 10:58:15;;;;;;;3.23;3.03;;;27.40;61.30;;;;;;5052175;28;20497;-76
2022/08/29 11:00:51;;;;;;;3.60;3.40;;;27.40;61.30;;;;;;5052600;28;20447;-77
2022/08/29 11:03:32;;;;;;;3.57;3.37;;;27.40;61.30;;;;;;5051911;28;20424;-76
2022/08/29 11:06:09;;;;;;;3.40;3.20;;;27.40;61.30;;;;;;5052362;28;20431;-77
2022/08/29 11:08:44;;;;;;;3.40;3.20;;;27.40;61.30;;;;;;5052181;28;20475;-76
2022/08/29 11:11:17;;;;;;;3.20;3.00;;;27.40;61.20;;;;;;5051953;28;20443;-77
2022/08/29 11:13:49;;;;;;;3.33;3.13;;;27.50;61.20;;;;;;5049215;28;20498;-78
2022/08/29 11:16:22;;;;;;;3.23;3.03;;;27.40;61.20;;;;;;5051544;28;20474;-78
2022/08/29 11:18:55;;;;;;;3.40;3.20;;;27.50;61.20;;;;;;5050709;28;20828;-76
2022/08/29 11:21:32;;;;;;;3.37;3.17;;;27.50;61.10;;;;;;5051932;28;20489;-76
2022/08/29 11:24:02;;;;;;;3.07;2.87;;;27.50;61.10;;;;;;5050533;28;20492;-76
2022/08/29 11:26:44;;;;;;;3.40;3.20;;;27.50;61.00;;;;;;5050390;28;20525;-76
2022/08/29 11:29:24;;;;;;;3.13;2.93;;;27.50;61.00;;;;;;5051172;28;20921;-77
2022/08/29 11:31:59;;;;;;;3.60;3.40;;;27.60;61.00;;;;;;5051598;28;20809;-76
2022/08/29 11:34:35;;;;;;;3.40;3.20;;;27.60;61.00;;;;;;5052137;28;20430;-76
2022/08/29 11:37:34;;;;;;;4.00;3.70;;;27.60;60.90;;;;;;5051963;28;20539;-76
2022/08/29 11:40:12;;;;;;;3.10;2.90;;;27.60;60.90;;;;;;5028554;28;20989;-76
2022/08/29 11:42:45;;;;;;;3.10;2.90;;;27.60;60.90;;;;;;5040862;28;20449;-76
2022/08/29 11:45:25;;;;;;;3.50;3.30;;;27.60;60.80;;;;;;5051172;28;20452;-76
2022/08/29 11:48:30;;;;;;;3.37;3.20;;;27.70;60.80;;;;;;5048547;28;20459;-77
2022/08/29 11:50:59;;;;;;;3.10;2.90;;;27.70;60.80;;;;;;5052026;28;20445;-74
2022/08/29 11:53:33;;;;;;;3.07;2.87;;;27.70;60.70;;;;;;5050959;28;20525;-74
2022/08/29 11:56:25;;;;;;;3.40;3.20;;;27.70;60.70;;;;;;5051013;28;20459;-74
2022/08/29 11:58:58;;;;;;;3.03;2.83;;;27.70;60.70;;;;;;5038496;28;20474;-74
2022/08/29 12:01:57;;;;;;;3.10;2.90;;;27.70;60.70;;;;;;5051315;28;20474;-73
2022/08/29 12:04:52;;;;;;;3.43;3.23;;;27.70;60.60;;;;;;5048296;28;20457;-74
2022/08/29 12:07:32;;;;;;;3.20;3.00;;;27.70;60.60;;;;;;5050970;28;20430;-74
2022/08/29 12:10:02;;;;;;;3.37;3.17;;;27.70;60.70;;;;;;5051763;28;20486;-74
2022/08/29 12:12:46;;;;;;;3.07;2.97;;;27.70;60.60;;;;;;5051349;28;20844;-73
2022/08/29 12:15:52;;;;;;;3.13;2.93;;;27.80;60.60;;;;;;5051070;28;20442;-74
2022/08/29 12:18:54;;;;;;;3.00;2.80;;;27.80;60.50;;;;;;5050503;28;20495;-75
2022/08/29 12:21:47;;;;;;;3.07;2.97;;;27.70;60.70;;;;;;5036254;28;20778;-74
2022/08/29 12:24:43;;;;;;;3.27;3.07;;;27.70;60.70;;;;;;5031039;28;20433;-75
2022/08/29 12:28:00;;;;;;;2.83;2.73;;;27.70;60.70;;;;;;5011200;28;20972;-74
2022/08/29 12:30:34;;;;;;;3.30;3.10;;;27.70;60.80;;;;;;5045982;28;20911;-74
2022/08/29 12:33:12;;;;;;;2.87;2.73;;;27.70;60.80;;;;;;5049935;28;20473;-74
2022/08/29 12:36:07;;;;;;;3.23;3.07;;;27.70;60.80;;;;;;5054862;28;20925;-74
2022/08/29 12:38:48;;;;;;;3.40;3.20;;;27.70;60.90;;;;;;5044073;28;20461;-74
2022/08/29 12:41:33;;;;;;;3.73;3.53;;;27.70;60.90;;;;;;5054664;28;20858;-74
2022/08/29 12:44:09;;;;;;;3.60;3.40;;;27.70;60.80;;;;;;5055349;28;20478;-74
2022/08/29 12:46:41;;;;;;;3.17;3.07;;;27.70;60.70;;;;;;5054018;28;20853;-74
2022/08/29 12:49:20;;;;;;;3.00;2.90;;;27.70;60.60;;;;;;5053975;28;20437;-74
2022/08/29 12:51:54;;;;;;;3.30;3.10;;;27.80;60.60;;;;;;5055219;28;20577;-77
2022/08/29 12:54:31;;;;;;;2.70;2.60;;;27.80;60.60;;;;;;5054597;28;20998;-76
2022/08/29 12:57:00;;;;;;;3.60;3.40;;;27.80;60.60;;;;;;5054915;28;20806;-76
2022/08/29 12:59:30;;;;;;;3.67;3.47;;;27.80;60.50;;;;;;5053192;28;20505;-77
2022/08/29 13:02:01;;;;;;;3.20;3.00;;;27.80;60.50;;;;;;5053864;28;20480;-77
2022/08/29 13:04:32;;;;;;;2.93;2.83;;;27.80;60.50;;;;;;5054289;28;20440;-76
2022/08/29 13:07:03;;;;;;;3.33;3.13;;;27.80;60.50;;;;;;5054285;28;20497;-76
2022/08/29 13:09:34;;;;;;;3.33;3.13;;;27.80;60.50;;;;;;5054138;28;20462;-76
2022/08/29 13:12:17;;;;;;;2.53;2.43;;;27.80;60.50;;;;;;5054564;28;20481;-76
2022/08/29 13:15:07;;;;;;;3.07;2.97;;;27.80;60.50;;;;;;5039434;28;20565;-78
2022/08/29 13:17:38;;;;;;;3.20;3.00;;;27.80;60.50;;;;;;5033719;28;20474;-77
2022/08/29 13:20:45;;;;;;;3.50;3.30;;;27.80;60.50;;;;;;5042033;28;20543;-78
2022/08/29 13:23:18;;;;;;;3.40;3.20;;;27.80;60.40;;;;;;5048978;28;20888;-77